Terminal Aerodrome Forecast
Issued by NWS

Home | Current Version | Previous Version | Graphics & Text | Print | Product List | Glossary On
Versions: 1 2 3 4 5 6 7 8 9 10 11 12 13 14 15 16 17 18
802
FTUS43 KBIS 112335
TAFDIK
TAF
KDIK 112335Z 1200/1224 36004KT P6SM SCT009 OVC020
     FM120300 01005KT 6SM BR SCT003 OVC008
     FM120800 36008KT 5SM -SN BR OVC003
     FM121200 02008KT P6SM OVC010
     FM121500 05008KT P6SM OVC025
     FM122000 10009KT P6SM BKN040=

USA.gov is the U.S. government's official web portal to all federal, state and local government web resources and services.